sensor_id;sensor_type;location;lat;lon;timestamp;P1;durP1;ratioP1;P2;durP2;ratioP2
78838;SDS011;68405;47.190;27.558;2023-03-16T00:01:15;3.70;;;2.70;;
78838;SDS011;68405;47.190;27.558;2023-03-16T00:03:47;3.90;;;2.60;;
78838;SDS011;68405;47.190;27.558;2023-03-16T00:06:18;3.70;;;2.90;;
78838;SDS011;68405;47.190;27.558;2023-03-16T00:08:50;4.50;;;2.60;;
78838;SDS011;68405;47.190;27.558;2023-03-16T00:11:26;2.80;;;2.30;;
78838;SDS011;68405;47.190;27.558;2023-03-16T00:13:58;6.00;;;4.10;;
78838;SDS011;68405;47.190;27.558;2023-03-16T00:16:31;3.60;;;2.80;;
78838;SDS011;68405;47.190;27.558;2023-03-16T00:19:03;5.10;;;3.10;;
78838;SDS011;68405;47.190;27.558;2023-03-16T00:21:35;4.20;;;3.40;;
78838;SDS011;68405;47.190;27.558;2023-03-16T00:24:07;2.80;;;2.60;;
78838;SDS011;68405;47.190;27.558;2023-03-16T00:26:40;3.30;;;3.00;;
78838;SDS011;68405;47.190;27.558;2023-03-16T00:29:12;4.00;;;3.10;;
78838;SDS011;68405;47.190;27.558;2023-03-16T00:31:44;4.10;;;3.00;;
78838;SDS011;68405;47.190;27.558;2023-03-16T00:34:15;4.00;;;3.10;;
78838;SDS011;68405;47.190;27.558;2023-03-16T00:36:47;3.90;;;2.90;;
78838;SDS011;68405;47.190;27.558;2023-03-16T00:39:19;7.10;;;4.50;;
78838;SDS011;68405;47.190;27.558;2023-03-16T00:41:51;5.00;;;3.70;;
78838;SDS011;68405;47.190;27.558;2023-03-16T00:44:27;3.10;;;2.20;;
78838;SDS011;68405;47.190;27.558;2023-03-16T00:47:00;4.00;;;2.70;;
78838;SDS011;68405;47.190;27.558;2023-03-16T00:49:32;2.30;;;2.10;;
78838;SDS011;68405;47.190;27.558;2023-03-16T00:52:05;3.20;;;2.30;;
78838;SDS011;68405;47.190;27.558;2023-03-16T00:54:42;3.20;;;2.30;;
78838;SDS011;68405;47.190;27.558;2023-03-16T00:57:16;3.20;;;2.70;;
78838;SDS011;68405;47.190;27.558;2023-03-16T00:59:49;3.20;;;2.40;;
78838;SDS011;68405;47.190;27.558;2023-03-16T01:02:21;4.50;;;2.90;;
78838;SDS011;68405;47.190;27.558;2023-03-16T01:04:54;4.70;;;3.60;;
78838;SDS011;68405;47.190;27.558;2023-03-16T01:07:26;4.30;;;2.50;;
78838;SDS011;68405;47.190;27.558;2023-03-16T01:09:58;3.00;;;2.20;;
78838;SDS011;68405;47.190;27.558;2023-03-16T01:12:31;2.90;;;2.60;;
78838;SDS011;68405;47.190;27.558;2023-03-16T01:15:03;3.10;;;2.80;;
78838;SDS011;68405;47.190;27.558;2023-03-16T01:17:36;3.50;;;2.20;;
78838;SDS011;68405;47.190;27.558;2023-03-16T01:20:09;4.30;;;2.80;;
78838;SDS011;68405;47.190;27.558;2023-03-16T01:22:47;4.40;;;3.40;;
78838;SDS011;68405;47.190;27.558;2023-03-16T01:25:19;5.40;;;3.50;;
78838;SDS011;68405;47.190;27.558;2023-03-16T01:27:51;2.40;;;2.20;;
78838;SDS011;68405;47.190;27.558;2023-03-16T01:30:23;4.90;;;2.40;;
78838;SDS011;68405;47.190;27.558;2023-03-16T01:32:55;4.10;;;2.90;;
78838;SDS011;68405;47.190;27.558;2023-03-16T01:35:27;3.30;;;2.40;;
78838;SDS011;68405;47.190;27.558;2023-03-16T01:37:59;3.80;;;2.80;;
78838;SDS011;68405;47.190;27.558;2023-03-16T01:40:31;2.80;;;2.30;;
78838;SDS011;68405;47.190;27.558;2023-03-16T01:43:05;2.90;;;2.60;;
78838;SDS011;68405;47.190;27.558;2023-03-16T01:46:08;6.20;;;5.10;;
78838;SDS011;68405;47.190;27.558;2023-03-16T01:48:51;5.90;;;4.10;;
78838;SDS011;68405;47.190;27.558;2023-03-16T01:51:32;3.00;;;2.40;;
78838;SDS011;68405;47.190;27.558;2023-03-16T01:54:12;3.00;;;2.70;;
78838;SDS011;68405;47.190;27.558;2023-03-16T01:56:50;3.20;;;2.80;;
78838;SDS011;68405;47.190;27.558;2023-03-16T01:59:28;3.80;;;2.70;;
78838;SDS011;68405;47.190;27.558;2023-03-16T02:02:03;5.20;;;3.10;;
78838;SDS011;68405;47.190;27.558;2023-03-16T02:04:39;3.70;;;2.70;;
78838;SDS011;68405;47.190;27.558;2023-03-16T02:07:17;3.20;;;2.90;;
78838;SDS011;68405;47.190;27.558;2023-03-16T02:09:52;3.70;;;2.70;;
78838;SDS011;68405;47.190;27.558;2023-03-16T02:14:57;4.10;;;2.70;;
78838;SDS011;68405;47.190;27.558;2023-03-16T02:17:30;3.20;;;2.20;;
78838;SDS011;68405;47.190;27.558;2023-03-16T02:20:07;3.70;;;3.00;;
78838;SDS011;68405;47.190;27.558;2023-03-16T02:22:53;3.70;;;2.30;;
78838;SDS011;68405;47.190;27.558;2023-03-16T02:25:28;2.70;;;2.30;;
78838;SDS011;68405;47.190;27.558;2023-03-16T02:28:07;1.60;;;1.50;;
78838;SDS011;68405;47.190;27.558;2023-03-16T02:30:44;3.90;;;2.80;;
78838;SDS011;68405;47.190;27.558;2023-03-16T02:33:17;6.50;;;3.60;;
78838;SDS011;68405;47.190;27.558;2023-03-16T02:35:49;4.10;;;2.50;;
78838;SDS011;68405;47.190;27.558;2023-03-16T02:38:21;3.30;;;2.70;;
78838;SDS011;68405;47.190;27.558;2023-03-16T02:40:55;2.50;;;2.20;;
78838;SDS011;68405;47.190;27.558;2023-03-16T02:43:31;2.90;;;2.00;;
78838;SDS011;68405;47.190;27.558;2023-03-16T02:46:04;3.40;;;2.10;;
78838;SDS011;68405;47.190;27.558;2023-03-16T02:48:39;2.60;;;2.10;;
78838;SDS011;68405;47.190;27.558;2023-03-16T02:51:15;2.60;;;2.30;;
78838;SDS011;68405;47.190;27.558;2023-03-16T02:53:47;3.60;;;2.00;;
78838;SDS011;68405;47.190;27.558;2023-03-16T02:56:19;3.30;;;2.00;;
78838;SDS011;68405;47.190;27.558;2023-03-16T02:58:52;4.50;;;2.60;;
78838;SDS011;68405;47.190;27.558;2023-03-16T03:01:24;2.30;;;1.90;;
78838;SDS011;68405;47.190;27.558;2023-03-16T03:03:56;2.60;;;1.90;;
78838;SDS011;68405;47.190;27.558;2023-03-16T03:06:28;2.60;;;2.40;;
78838;SDS011;68405;47.190;27.558;2023-03-16T03:09:01;2.60;;;2.00;;
78838;SDS011;68405;47.190;27.558;2023-03-16T03:11:33;2.10;;;1.70;;
78838;SDS011;68405;47.190;27.558;2023-03-16T03:14:07;2.50;;;1.60;;
78838;SDS011;68405;47.190;27.558;2023-03-16T03:16:39;2.80;;;2.00;;
78838;SDS011;68405;47.190;27.558;2023-03-16T03:19:14;3.70;;;1.90;;
78838;SDS011;68405;47.190;27.558;2023-03-16T03:21:46;3.40;;;2.40;;
78838;SDS011;68405;47.190;27.558;2023-03-16T03:24:17;2.70;;;2.30;;
78838;SDS011;68405;47.190;27.558;2023-03-16T03:26:50;2.00;;;1.80;;
78838;SDS011;68405;47.190;27.558;2023-03-16T03:29:21;3.10;;;1.80;;
78838;SDS011;68405;47.190;27.558;2023-03-16T03:32:02;4.20;;;1.90;;
78838;SDS011;68405;47.190;27.558;2023-03-16T03:34:34;1.90;;;1.40;;
78838;SDS011;68405;47.190;27.558;2023-03-16T03:37:06;1.60;;;1.40;;
78838;SDS011;68405;47.190;27.558;2023-03-16T03:39:38;2.00;;;1.30;;
78838;SDS011;68405;47.190;27.558;2023-03-16T03:42:10;2.20;;;2.00;;
78838;SDS011;68405;47.190;27.558;2023-03-16T03:44:43;3.40;;;1.90;;
78838;SDS011;68405;47.190;27.558;2023-03-16T03:47:14;2.80;;;1.90;;
78838;SDS011;68405;47.190;27.558;2023-03-16T03:49:46;2.00;;;1.80;;
78838;SDS011;68405;47.190;27.558;2023-03-16T03:52:18;2.00;;;1.60;;
78838;SDS011;68405;47.190;27.558;2023-03-16T03:54:50;1.60;;;1.50;;
78838;SDS011;68405;47.190;27.558;2023-03-16T03:57:21;1.80;;;1.70;;
78838;SDS011;68405;47.190;27.558;2023-03-16T03:59:54;2.50;;;1.60;;
78838;SDS011;68405;47.190;27.558;2023-03-16T04:02:25;2.90;;;2.00;;
78838;SDS011;68405;47.190;27.558;2023-03-16T04:04:57;2.70;;;2.00;;
78838;SDS011;68405;47.190;27.558;2023-03-16T04:07:29;3.00;;;2.10;;
78838;SDS011;68405;47.190;27.558;2023-03-16T04:10:02;2.00;;;1.80;;
78838;SDS011;68405;47.190;27.558;2023-03-16T04:12:35;2.50;;;1.50;;
78838;SDS011;68405;47.190;27.558;2023-03-16T04:15:07;1.30;;;1.20;;
78838;SDS011;68405;47.190;27.558;2023-03-16T04:17:41;2.30;;;1.90;;
78838;SDS011;68405;47.190;27.558;2023-03-16T04:20:13;2.10;;;1.80;;
78838;SDS011;68405;47.190;27.558;2023-03-16T04:22:46;1.80;;;1.60;;
78838;SDS011;68405;47.190;27.558;2023-03-16T04:25:26;2.40;;;1.70;;
78838;SDS011;68405;47.190;27.558;2023-03-16T04:27:59;2.80;;;2.10;;
78838;SDS011;68405;47.190;27.558;2023-03-16T04:30:30;2.30;;;1.70;;
78838;SDS011;68405;47.190;27.558;2023-03-16T04:33:02;2.00;;;1.80;;
78838;SDS011;68405;47.190;27.558;2023-03-16T04:35:34;2.40;;;2.10;;
78838;SDS011;68405;47.190;27.558;2023-03-16T04:38:06;2.00;;;1.50;;
78838;SDS011;68405;47.190;27.558;2023-03-16T04:40:40;2.00;;;1.80;;
78838;SDS011;68405;47.190;27.558;2023-03-16T04:43:12;2.70;;;2.00;;
78838;SDS011;68405;47.190;27.558;2023-03-16T04:45:44;2.00;;;1.60;;
78838;SDS011;68405;47.190;27.558;2023-03-16T04:48:16;3.40;;;2.50;;
78838;SDS011;68405;47.190;27.558;2023-03-16T04:50:48;2.80;;;2.50;;
78838;SDS011;68405;47.190;27.558;2023-03-16T04:53:21;2.90;;;2.20;;
78838;SDS011;68405;47.190;27.558;2023-03-16T04:55:53;1.80;;;1.70;;
78838;SDS011;68405;47.190;27.558;2023-03-16T04:58:24;2.60;;;1.90;;
78838;SDS011;68405;47.190;27.558;2023-03-16T05:00:56;2.20;;;1.80;;
78838;SDS011;68405;47.190;27.558;2023-03-16T05:03:28;2.60;;;1.90;;
78838;SDS011;68405;47.190;27.558;2023-03-16T05:06:02;1.60;;;1.40;;
78838;SDS011;68405;47.190;27.558;2023-03-16T05:08:34;2.50;;;2.00;;
78838;SDS011;68405;47.190;27.558;2023-03-16T05:11:06;2.20;;;1.90;;
78838;SDS011;68405;47.190;27.558;2023-03-16T05:13:38;4.70;;;2.20;;
78838;SDS011;68405;47.190;27.558;2023-03-16T05:16:10;2.10;;;1.90;;
78838;SDS011;68405;47.190;27.558;2023-03-16T05:18:41;2.00;;;1.70;;
78838;SDS011;68405;47.190;27.558;2023-03-16T05:21:17;2.60;;;2.10;;
78838;SDS011;68405;47.190;27.558;2023-03-16T05:23:50;3.30;;;1.80;;
78838;SDS011;68405;47.190;27.558;2023-03-16T05:26:22;3.00;;;2.00;;
78838;SDS011;68405;47.190;27.558;2023-03-16T05:28:54;2.10;;;1.80;;
78838;SDS011;68405;47.190;27.558;2023-03-16T05:31:26;2.30;;;2.10;;
78838;SDS011;68405;47.190;27.558;2023-03-16T05:34:01;4.60;;;2.40;;
78838;SDS011;68405;47.190;27.558;2023-03-16T05:36:33;2.70;;;2.30;;
78838;SDS011;68405;47.190;27.558;2023-03-16T05:39:07;3.00;;;2.30;;
78838;SDS011;68405;47.190;27.558;2023-03-16T05:41:39;2.90;;;1.90;;
78838;SDS011;68405;47.190;27.558;2023-03-16T05:44:11;2.40;;;2.10;;
78838;SDS011;68405;47.190;27.558;2023-03-16T05:46:43;3.00;;;2.70;;
78838;SDS011;68405;47.190;27.558;2023-03-16T05:49:15;3.80;;;1.90;;
78838;SDS011;68405;47.190;27.558;2023-03-16T05:51:47;1.90;;;1.70;;
78838;SDS011;68405;47.190;27.558;2023-03-16T05:54:20;2.80;;;2.20;;
78838;SDS011;68405;47.190;27.558;2023-03-16T05:56:52;3.60;;;3.20;;
78838;SDS011;68405;47.190;27.558;2023-03-16T05:59:24;3.00;;;2.50;;
78838;SDS011;68405;47.190;27.558;2023-03-16T06:01:55;3.20;;;2.10;;
78838;SDS011;68405;47.190;27.558;2023-03-16T06:04:30;2.40;;;2.20;;
78838;SDS011;68405;47.190;27.558;2023-03-16T06:07:01;2.70;;;2.10;;
78838;SDS011;68405;47.190;27.558;2023-03-16T06:09:34;2.30;;;2.00;;
78838;SDS011;68405;47.190;27.558;2023-03-16T06:12:06;2.30;;;1.90;;
78838;SDS011;68405;47.190;27.558;2023-03-16T06:14:38;3.00;;;2.10;;
78838;SDS011;68405;47.190;27.558;2023-03-16T06:17:10;2.80;;;1.90;;
78838;SDS011;68405;47.190;27.558;2023-03-16T06:19:42;2.20;;;1.90;;
78838;SDS011;68405;47.190;27.558;2023-03-16T06:22:14;2.10;;;1.90;;
78838;SDS011;68405;47.190;27.558;2023-03-16T06:24:47;5.70;;;2.50;;
78838;SDS011;68405;47.190;27.558;2023-03-16T06:27:19;2.90;;;2.30;;
78838;SDS011;68405;47.190;27.558;2023-03-16T06:29:54;1.80;;;1.60;;
78838;SDS011;68405;47.190;27.558;2023-03-16T06:32:26;3.00;;;2.40;;
78838;SDS011;68405;47.190;27.558;2023-03-16T06:34:58;2.20;;;1.80;;
78838;SDS011;68405;47.190;27.558;2023-03-16T06:37:30;3.80;;;2.00;;
78838;SDS011;68405;47.190;27.558;2023-03-16T06:40:03;3.30;;;2.10;;
78838;SDS011;68405;47.190;27.558;2023-03-16T06:42:37;3.50;;;2.60;;
78838;SDS011;68405;47.190;27.558;2023-03-16T06:45:09;3.30;;;3.00;;
78838;SDS011;68405;47.190;27.558;2023-03-16T06:47:44;2.40;;;2.20;;
78838;SDS011;68405;47.190;27.558;2023-03-16T06:50:16;3.80;;;2.20;;
78838;SDS011;68405;47.190;27.558;2023-03-16T06:52:48;3.10;;;2.20;;
78838;SDS011;68405;47.190;27.558;2023-03-16T06:55:21;3.50;;;2.30;;
78838;SDS011;68405;47.190;27.558;2023-03-16T06:57:53;3.00;;;2.30;;
78838;SDS011;68405;47.190;27.558;2023-03-16T07:00:25;2.60;;;1.90;;
78838;SDS011;68405;47.190;27.558;2023-03-16T07:02:59;3.70;;;2.00;;
78838;SDS011;68405;47.190;27.558;2023-03-16T07:05:48;5.00;;;2.80;;
78838;SDS011;68405;47.190;27.558;2023-03-16T07:08:26;3.30;;;2.40;;
78838;SDS011;68405;47.190;27.558;2023-03-16T07:11:17;4.70;;;2.10;;
78838;SDS011;68405;47.190;27.558;2023-03-16T07:13:51;5.20;;;2.40;;
78838;SDS011;68405;47.190;27.558;2023-03-16T07:16:23;3.40;;;2.90;;
78838;SDS011;68405;47.190;27.558;2023-03-16T07:18:57;2.90;;;2.40;;
78838;SDS011;68405;47.190;27.558;2023-03-16T07:21:30;4.60;;;2.60;;
78838;SDS011;68405;47.190;27.558;2023-03-16T07:24:08;2.60;;;1.80;;
78838;SDS011;68405;47.190;27.558;2023-03-16T07:26:41;3.40;;;1.80;;
78838;SDS011;68405;47.190;27.558;2023-03-16T07:29:14;1.90;;;1.70;;
78838;SDS011;68405;47.190;27.558;2023-03-16T07:31:46;2.80;;;2.50;;
78838;SDS011;68405;47.190;27.558;2023-03-16T07:34:19;3.70;;;3.00;;
78838;SDS011;68405;47.190;27.558;2023-03-16T07:36:57;2.60;;;2.00;;
78838;SDS011;68405;47.190;27.558;2023-03-16T07:39:30;3.30;;;2.40;;
78838;SDS011;68405;47.190;27.558;2023-03-16T07:42:02;3.40;;;2.40;;
78838;SDS011;68405;47.190;27.558;2023-03-16T07:44:35;3.50;;;2.40;;
78838;SDS011;68405;47.190;27.558;2023-03-16T07:47:08;3.20;;;2.90;;
78838;SDS011;68405;47.190;27.558;2023-03-16T07:49:41;3.10;;;2.70;;
78838;SDS011;68405;47.190;27.558;2023-03-16T07:52:14;2.80;;;2.20;;
78838;SDS011;68405;47.190;27.558;2023-03-16T07:54:48;3.40;;;2.20;;
78838;SDS011;68405;47.190;27.558;2023-03-16T07:57:20;4.00;;;2.60;;
78838;SDS011;68405;47.190;27.558;2023-03-16T07:59:52;2.20;;;1.80;;
78838;SDS011;68405;47.190;27.558;2023-03-16T08:02:26;4.20;;;2.20;;
78838;SDS011;68405;47.190;27.558;2023-03-16T08:05:08;2.40;;;1.90;;
78838;SDS011;68405;47.190;27.558;2023-03-16T08:07:42;2.70;;;2.00;;
78838;SDS011;68405;47.190;27.558;2023-03-16T08:10:15;2.10;;;1.80;;
78838;SDS011;68405;47.190;27.558;2023-03-16T08:12:49;3.70;;;2.60;;
78838;SDS011;68405;47.190;27.558;2023-03-16T08:15:22;2.80;;;2.50;;
78838;SDS011;68405;47.190;27.558;2023-03-16T08:17:55;2.50;;;1.70;;
78838;SDS011;68405;47.190;27.558;2023-03-16T08:20:27;3.40;;;2.40;;
78838;SDS011;68405;47.190;27.558;2023-03-16T08:23:03;3.70;;;2.40;;
78838;SDS011;68405;47.190;27.558;2023-03-16T08:25:35;2.40;;;1.90;;
78838;SDS011;68405;47.190;27.558;2023-03-16T08:28:07;2.80;;;1.60;;
78838;SDS011;68405;47.190;27.558;2023-03-16T08:30:45;2.70;;;1.90;;
78838;SDS011;68405;47.190;27.558;2023-03-16T08:33:19;3.50;;;2.30;;
78838;SDS011;68405;47.190;27.558;2023-03-16T08:35:54;2.60;;;2.10;;
78838;SDS011;68405;47.190;27.558;2023-03-16T08:38:26;1.70;;;1.50;;
78838;SDS011;68405;47.190;27.558;2023-03-16T08:40:58;3.20;;;1.70;;
78838;SDS011;68405;47.190;27.558;2023-03-16T08:43:32;2.30;;;1.70;;
78838;SDS011;68405;47.190;27.558;2023-03-16T08:46:05;2.10;;;1.70;;
78838;SDS011;68405;47.190;27.558;2023-03-16T08:48:37;3.00;;;2.20;;
78838;SDS011;68405;47.190;27.558;2023-03-16T08:51:10;2.00;;;1.70;;
78838;SDS011;68405;47.190;27.558;2023-03-16T08:53:43;2.70;;;2.00;;
78838;SDS011;68405;47.190;27.558;2023-03-16T08:56:19;4.20;;;2.20;;
78838;SDS011;68405;47.190;27.558;2023-03-16T08:58:53;3.90;;;1.80;;
78838;SDS011;68405;47.190;27.558;2023-03-16T09:01:26;6.30;;;1.90;;
78838;SDS011;68405;47.190;27.558;2023-03-16T09:03:59;2.30;;;1.70;;
78838;SDS011;68405;47.190;27.558;2023-03-16T09:06:31;2.50;;;1.60;;
78838;SDS011;68405;47.190;27.558;2023-03-16T09:09:07;2.20;;;1.60;;
78838;SDS011;68405;47.190;27.558;2023-03-16T09:11:41;3.80;;;1.80;;
78838;SDS011;68405;47.190;27.558;2023-03-16T09:14:20;2.50;;;1.80;;
78838;SDS011;68405;47.190;27.558;2023-03-16T09:16:54;3.00;;;1.80;;
78838;SDS011;68405;47.190;27.558;2023-03-16T09:19:27;3.10;;;1.80;;
78838;SDS011;68405;47.190;27.558;2023-03-16T09:21:59;2.90;;;2.30;;
78838;SDS011;68405;47.190;27.558;2023-03-16T09:24:32;3.10;;;2.40;;
78838;SDS011;68405;47.190;27.558;2023-03-16T09:27:05;4.60;;;1.90;;
78838;SDS011;68405;47.190;27.558;2023-03-16T09:29:39;4.10;;;2.30;;
78838;SDS011;68405;47.190;27.558;2023-03-16T09:32:13;3.10;;;1.90;;
78838;SDS011;68405;47.190;27.558;2023-03-16T09:34:47;2.60;;;1.90;;
78838;SDS011;68405;47.190;27.558;2023-03-16T09:37:20;2.20;;;1.80;;
78838;SDS011;68405;47.190;27.558;2023-03-16T09:39:57;2.20;;;1.80;;
78838;SDS011;68405;47.190;27.558;2023-03-16T09:42:31;2.20;;;1.60;;
78838;SDS011;68405;47.190;27.558;2023-03-16T09:45:13;2.70;;;2.00;;
78838;SDS011;68405;47.190;27.558;2023-03-16T09:47:56;2.80;;;1.70;;
78838;SDS011;68405;47.190;27.558;2023-03-16T09:50:34;2.30;;;1.90;;
78838;SDS011;68405;47.190;27.558;2023-03-16T09:53:09;3.30;;;1.90;;
78838;SDS011;68405;47.190;27.558;2023-03-16T09:55:54;3.70;;;1.80;;
78838;SDS011;68405;47.190;27.558;2023-03-16T09:58:31;3.00;;;2.00;;
78838;SDS011;68405;47.190;27.558;2023-03-16T10:01:07;3.80;;;1.90;;
78838;SDS011;68405;47.190;27.558;2023-03-16T10:03:51;2.80;;;2.00;;
78838;SDS011;68405;47.190;27.558;2023-03-16T10:06:36;1.80;;;1.50;;
78838;SDS011;68405;47.190;27.558;2023-03-16T10:09:20;2.60;;;2.00;;
78838;SDS011;68405;47.190;27.558;2023-03-16T10:12:01;2.20;;;1.60;;
78838;SDS011;68405;47.190;27.558;2023-03-16T10:14:39;2.50;;;1.50;;
78838;SDS011;68405;47.190;27.558;2023-03-16T10:17:15;2.70;;;1.70;;
78838;SDS011;68405;47.190;27.558;2023-03-16T10:19:54;1.60;;;1.50;;
78838;SDS011;68405;47.190;27.558;2023-03-16T10:22:35;1.50;;;1.40;;
78838;SDS011;68405;47.190;27.558;2023-03-16T10:25:14;2.20;;;1.50;;
78838;SDS011;68405;47.190;27.558;2023-03-16T10:27:52;1.10;;;1.00;;
78838;SDS011;68405;47.190;27.558;2023-03-16T10:30:25;1.90;;;1.30;;
78838;SDS011;68405;47.190;27.558;2023-03-16T10:33:01;1.80;;;1.50;;
78838;SDS011;68405;47.190;27.558;2023-03-16T10:35:43;2.00;;;1.60;;
78838;SDS011;68405;47.190;27.558;2023-03-16T10:38:30;3.40;;;1.60;;
78838;SDS011;68405;47.190;27.558;2023-03-16T10:41:21;3.50;;;1.50;;
78838;SDS011;68405;47.190;27.558;2023-03-16T10:44:01;2.10;;;1.80;;
78838;SDS011;68405;47.190;27.558;2023-03-16T10:46:40;2.00;;;1.70;;
78838;SDS011;68405;47.190;27.558;2023-03-16T10:49:21;2.40;;;1.70;;
78838;SDS011;68405;47.190;27.558;2023-03-16T10:51:55;2.50;;;1.60;;
78838;SDS011;68405;47.190;27.558;2023-03-16T10:54:30;2.10;;;1.70;;
78838;SDS011;68405;47.190;27.558;2023-03-16T10:57:17;2.00;;;1.60;;
78838;SDS011;68405;47.190;27.558;2023-03-16T10:59:58;3.00;;;1.90;;
78838;SDS011;68405;47.190;27.558;2023-03-16T11:02:44;1.90;;;1.70;;
78838;SDS011;68405;47.190;27.558;2023-03-16T11:08:12;3.30;;;2.20;;
78838;SDS011;68405;47.190;27.558;2023-03-16T11:10:54;2.10;;;1.70;;
78838;SDS011;68405;47.190;27.558;2023-03-16T11:13:33;2.20;;;1.70;;
78838;SDS011;68405;47.190;27.558;2023-03-16T11:16:13;2.00;;;1.60;;
78838;SDS011;68405;47.190;27.558;2023-03-16T11:18:55;2.40;;;1.80;;
78838;SDS011;68405;47.190;27.558;2023-03-16T11:21:36;2.80;;;1.50;;
78838;SDS011;68405;47.190;27.558;2023-03-16T11:24:17;3.20;;;2.00;;
78838;SDS011;68405;47.190;27.558;2023-03-16T11:26:56;3.20;;;2.30;;
78838;SDS011;68405;47.190;27.558;2023-03-16T11:29:35;3.20;;;2.10;;
78838;SDS011;68405;47.190;27.558;2023-03-16T11:32:28;3.90;;;1.80;;
78838;SDS011;68405;47.190;27.558;2023-03-16T11:35:13;3.30;;;1.70;;
78838;SDS011;68405;47.190;27.558;2023-03-16T11:40:49;2.80;;;2.10;;
78838;SDS011;68405;47.190;27.558;2023-03-16T11:43:32;3.40;;;1.90;;
78838;SDS011;68405;47.190;27.558;2023-03-16T11:46:28;2.20;;;1.40;;
78838;SDS011;68405;47.190;27.558;2023-03-16T11:49:19;2.20;;;1.50;;
78838;SDS011;68405;47.190;27.558;2023-03-16T11:52:10;1.00;;;0.90;;
78838;SDS011;68405;47.190;27.558;2023-03-16T11:54:54;2.10;;;1.60;;
78838;SDS011;68405;47.190;27.558;2023-03-16T11:57:40;2.30;;;1.60;;
78838;SDS011;68405;47.190;27.558;2023-03-16T12:00:32;1.60;;;1.20;;
78838;SDS011;68405;47.190;27.558;2023-03-16T12:05:59;2.40;;;1.50;;
78838;SDS011;68405;47.190;27.558;2023-03-16T12:08:41;3.80;;;1.60;;
78838;SDS011;68405;47.190;27.558;2023-03-16T12:11:40;2.30;;;1.70;;
78838;SDS011;68405;47.190;27.558;2023-03-16T12:14:32;1.40;;;1.20;;
78838;SDS011;68405;47.190;27.558;2023-03-16T12:17:12;1.40;;;1.30;;
78838;SDS011;68405;47.190;27.558;2023-03-16T12:19:49;2.20;;;1.60;;
78838;SDS011;68405;47.190;27.558;2023-03-16T12:22:28;1.80;;;1.50;;
78838;SDS011;68405;47.190;27.558;2023-03-16T12:25:11;1.80;;;1.70;;
78838;SDS011;68405;47.190;27.558;2023-03-16T12:27:49;2.80;;;1.70;;
78838;SDS011;68405;47.190;27.558;2023-03-16T12:30:30;2.40;;;1.90;;
78838;SDS011;68405;47.190;27.558;2023-03-16T12:33:13;3.20;;;2.10;;
78838;SDS011;68405;47.190;27.558;2023-03-16T12:35:57;3.10;;;2.30;;
78838;SDS011;68405;47.190;27.558;2023-03-16T12:38:37;4.30;;;2.40;;
78838;SDS011;68405;47.190;27.558;2023-03-16T12:41:24;2.90;;;2.00;;
78838;SDS011;68405;47.190;27.558;2023-03-16T12:44:11;3.00;;;1.90;;
78838;SDS011;68405;47.190;27.558;2023-03-16T12:46:50;3.10;;;2.20;;
78838;SDS011;68405;47.190;27.558;2023-03-16T12:49:31;3.50;;;2.10;;
78838;SDS011;68405;47.190;27.558;2023-03-16T12:52:17;2.90;;;1.80;;
78838;SDS011;68405;47.190;27.558;2023-03-16T12:55:05;2.70;;;2.00;;
78838;SDS011;68405;47.190;27.558;2023-03-16T12:57:43;3.10;;;2.10;;
78838;SDS011;68405;47.190;27.558;2023-03-16T13:00:33;3.90;;;2.30;;
78838;SDS011;68405;47.190;27.558;2023-03-16T13:03:12;4.90;;;2.50;;
78838;SDS011;68405;47.190;27.558;2023-03-16T13:05:50;3.40;;;2.00;;
78838;SDS011;68405;47.190;27.558;2023-03-16T13:08:27;4.20;;;2.20;;
78838;SDS011;68405;47.190;27.558;2023-03-16T13:11:11;3.30;;;2.10;;
78838;SDS011;68405;47.190;27.558;2023-03-16T13:13:52;3.20;;;2.60;;
78838;SDS011;68405;47.190;27.558;2023-03-16T13:16:42;2.60;;;1.60;;
78838;SDS011;68405;47.190;27.558;2023-03-16T13:19:25;4.20;;;2.20;;
78838;SDS011;68405;47.190;27.558;2023-03-16T13:22:01;5.40;;;2.70;;
78838;SDS011;68405;47.190;27.558;2023-03-16T13:24:53;4.00;;;2.60;;
78838;SDS011;68405;47.190;27.558;2023-03-16T13:27:32;2.30;;;1.90;;
78838;SDS011;68405;47.190;27.558;2023-03-16T13:30:15;2.70;;;2.20;;
78838;SDS011;68405;47.190;27.558;2023-03-16T13:32:53;3.70;;;2.30;;
78838;SDS011;68405;47.190;27.558;2023-03-16T13:35:30;2.90;;;2.10;;
78838;SDS011;68405;47.190;27.558;2023-03-16T13:38:03;2.80;;;2.10;;
78838;SDS011;68405;47.190;27.558;2023-03-16T13:40:38;2.70;;;2.00;;
78838;SDS011;68405;47.190;27.558;2023-03-16T13:43:25;3.90;;;2.30;;
78838;SDS011;68405;47.190;27.558;2023-03-16T13:46:00;2.50;;;1.90;;
78838;SDS011;68405;47.190;27.558;2023-03-16T13:48:47;3.40;;;2.00;;
78838;SDS011;68405;47.190;27.558;2023-03-16T13:51:21;3.10;;;2.10;;
78838;SDS011;68405;47.190;27.558;2023-03-16T13:54:02;3.00;;;2.50;;
78838;SDS011;68405;47.190;27.558;2023-03-16T13:56:48;4.10;;;2.30;;
78838;SDS011;68405;47.190;27.558;2023-03-16T13:59:22;2.40;;;1.90;;
78838;SDS011;68405;47.190;27.558;2023-03-16T14:01:56;3.40;;;2.90;;
78838;SDS011;68405;47.190;27.558;2023-03-16T14:07:02;4.20;;;2.80;;
78838;SDS011;68405;47.190;27.558;2023-03-16T14:09:45;3.50;;;2.60;;
78838;SDS011;68405;47.190;27.558;2023-03-16T14:12:18;3.60;;;2.70;;
78838;SDS011;68405;47.190;27.558;2023-03-16T14:14:53;5.50;;;2.90;;
78838;SDS011;68405;47.190;27.558;2023-03-16T14:17:25;4.70;;;3.20;;
78838;SDS011;68405;47.190;27.558;2023-03-16T14:19:59;4.80;;;2.80;;
78838;SDS011;68405;47.190;27.558;2023-03-16T14:22:32;5.40;;;3.10;;
78838;SDS011;68405;47.190;27.558;2023-03-16T14:25:09;4.20;;;3.00;;
78838;SDS011;68405;47.190;27.558;2023-03-16T14:27:55;3.60;;;2.70;;
78838;SDS011;68405;47.190;27.558;2023-03-16T14:30:29;2.40;;;2.10;;
78838;SDS011;68405;47.190;27.558;2023-03-16T14:33:02;2.50;;;2.10;;
78838;SDS011;68405;47.190;27.558;2023-03-16T14:35:54;6.40;;;2.60;;
78838;SDS011;68405;47.190;27.558;2023-03-16T14:38:30;3.10;;;2.20;;
78838;SDS011;68405;47.190;27.558;2023-03-16T14:41:05;2.80;;;2.00;;
78838;SDS011;68405;47.190;27.558;2023-03-16T14:43:46;3.00;;;1.70;;
78838;SDS011;68405;47.190;27.558;2023-03-16T14:46:23;2.70;;;1.80;;
78838;SDS011;68405;47.190;27.558;2023-03-16T14:49:02;4.90;;;2.40;;
78838;SDS011;68405;47.190;27.558;2023-03-16T14:51:37;3.50;;;1.90;;
78838;SDS011;68405;47.190;27.558;2023-03-16T14:54:13;4.40;;;2.10;;
78838;SDS011;68405;47.190;27.558;2023-03-16T14:56:48;3.10;;;1.90;;
78838;SDS011;68405;47.190;27.558;2023-03-16T14:59:21;2.70;;;2.30;;
78838;SDS011;68405;47.190;27.558;2023-03-16T15:01:54;5.40;;;1.90;;
78838;SDS011;68405;47.190;27.558;2023-03-16T15:04:27;1.80;;;1.40;;
78838;SDS011;68405;47.190;27.558;2023-03-16T15:07:04;3.10;;;2.30;;
78838;SDS011;68405;47.190;27.558;2023-03-16T15:09:48;4.40;;;2.30;;
78838;SDS011;68405;47.190;27.558;2023-03-16T15:12:21;4.10;;;2.80;;
78838;SDS011;68405;47.190;27.558;2023-03-16T15:14:53;3.60;;;2.00;;
78838;SDS011;68405;47.190;27.558;2023-03-16T15:17:44;2.90;;;1.50;;
78838;SDS011;68405;47.190;27.558;2023-03-16T15:20:18;2.60;;;1.90;;
78838;SDS011;68405;47.190;27.558;2023-03-16T15:22:52;3.90;;;2.30;;
78838;SDS011;68405;47.190;27.558;2023-03-16T15:25:27;3.90;;;2.60;;
78838;SDS011;68405;47.190;27.558;2023-03-16T15:28:05;3.00;;;1.80;;
78838;SDS011;68405;47.190;27.558;2023-03-16T15:30:44;2.90;;;1.80;;
78838;SDS011;68405;47.190;27.558;2023-03-16T15:33:17;5.70;;;2.30;;
78838;SDS011;68405;47.190;27.558;2023-03-16T15:35:49;3.60;;;2.00;;
78838;SDS011;68405;47.190;27.558;2023-03-16T15:38:23;2.30;;;1.40;;